createdAt,value
2023-02-11T00:00:22.220Z,100062.44
2023-02-11T00:03:26.010Z,100064.28
2023-02-11T00:06:31.851Z,100062.66
2023-02-11T00:09:35.003Z,100053.63
2023-02-11T00:12:38.748Z,100054.63
2023-02-11T00:15:41.837Z,100049.91
2023-02-11T00:18:45.915Z,100041.09
2023-02-11T00:21:50.426Z,100044.31
2023-02-11T00:24:54.861Z,100020.63
2023-02-11T00:27:58.929Z,100024.22
2023-02-11T00:31:02.644Z,100037.72
2023-02-11T00:34:05.870Z,100031.53
2023-02-11T00:37:12.016Z,100022.56
2023-02-11T00:40:18.457Z,100020.91
2023-02-11T00:43:21.749Z,100015.94
2023-02-11T00:46:26.955Z,100015.50
2023-02-11T00:49:30.123Z,100011.44
2023-02-11T00:52:36.305Z,100012.69
2023-02-11T00:55:39.461Z,100013.84
2023-02-11T00:58:42.648Z,100021.00
2023-02-11T01:01:46.811Z,100009.63
2023-02-11T01:04:50.262Z,100018.22
2023-02-11T01:07:54.766Z,100011.28
2023-02-11T01:11:00.327Z,100017.19
2023-02-11T01:14:04.158Z,100011.69
2023-02-11T01:17:07.381Z,100002.41
2023-02-11T01:20:16.856Z,99999.47
2023-02-11T01:23:22.196Z,99994.16
2023-02-11T01:26:25.586Z,99986.66
2023-02-11T01:29:29.226Z,99985.91
2023-02-11T01:32:33.082Z,99986.63
2023-02-11T01:35:36.675Z,99982.78
2023-02-11T01:38:41.937Z,99977.59
2023-02-11T01:41:45.121Z,99986.31
2023-02-11T01:44:51.528Z,99946.47
2023-02-11T01:47:54.729Z,99978.97
2023-02-11T01:51:02.755Z,99979.25
2023-02-11T01:54:26.129Z,99980.72
2023-02-11T01:57:32.649Z,99973.09
2023-02-11T02:00:38.226Z,99957.78
2023-02-11T02:03:46.925Z,99962.31
2023-02-11T02:06:54.485Z,99968.84
2023-02-11T02:10:02.781Z,99958.69
2023-02-11T02:13:06.062Z,99945.31
2023-02-11T02:16:13.614Z,99949.03
2023-02-11T02:19:47.051Z,99943.31
2023-02-11T02:23:17.214Z,99944.38
2023-02-11T02:26:47.859Z,99942.06
2023-02-11T02:30:26.035Z,99934.44
2023-02-11T02:33:43.128Z,99915.97
2023-02-11T02:37:02.434Z,99898.53
2023-02-11T02:40:10.963Z,99912.97
2023-02-11T02:43:16.183Z,99913.47
2023-02-11T02:46:22.074Z,99907.53
2023-02-11T02:49:26.611Z,99898.06
2023-02-11T02:52:37.810Z,99902.47
2023-02-11T02:55:54.719Z,99916.34
2023-02-11T02:59:11.646Z,99921.09
2023-02-11T03:02:19.642Z,99914.16
2023-02-11T03:05:28.766Z,99923.53
2023-02-11T03:08:35.590Z,99920.97
2023-02-11T03:11:38.793Z,99923.75
2023-02-11T03:14:42.639Z,99924.06
2023-02-11T03:17:49.069Z,99919.72
2023-02-11T03:20:55.891Z,99914.22
2023-02-11T03:24:03.136Z,99906.47
2023-02-11T03:27:13.818Z,99920.84
2023-02-11T03:30:21.808Z,99916.88
2023-02-11T03:33:30.150Z,99921.38
2023-02-11T03:36:41.029Z,99913.63
2023-02-11T03:39:48.733Z,99916.03
2023-02-11T03:42:55.130Z,99922.75
2023-02-11T03:46:00.650Z,99907.41
2023-02-11T03:49:07.906Z,99905.47
2023-02-11T03:52:13.834Z,99902.53
2023-02-11T03:55:19.487Z,99895.81
2023-02-11T03:58:22.684Z,99880.31
2023-02-11T04:01:25.865Z,99890.31
2023-02-11T04:04:29.166Z,99886.00
2023-02-11T04:07:34.073Z,99900.38
2023-02-11T04:10:37.269Z,99904.03
2023-02-11T04:13:40.538Z,99879.88
2023-02-11T04:16:43.749Z,99875.09
2023-02-11T04:19:46.914Z,99874.91
2023-02-11T04:22:51.483Z,99880.69
2023-02-11T04:25:54.753Z,99883.88
2023-02-11T04:28:57.912Z,99874.31
2023-02-11T04:34:24.525Z,99855.84
2023-02-11T04:37:27.752Z,99858.09
2023-02-11T04:40:30.945Z,99830.41
2023-02-11T04:43:34.413Z,99826.38
2023-02-11T04:46:37.659Z,99839.78
2023-02-11T04:49:42.875Z,99842.59
2023-02-11T04:52:46.048Z,99831.94
2023-02-11T04:55:50.645Z,99816.91
2023-02-11T04:58:54.263Z,99823.38
2023-02-11T05:01:57.349Z,99824.31
2023-02-11T05:05:01.889Z,99820.66
2023-02-11T05:08:05.637Z,99823.75
2023-02-11T05:11:09.621Z,99839.13
2023-02-11T05:14:12.802Z,99848.13
2023-02-11T05:17:16.055Z,99837.94
2023-02-11T05:20:21.622Z,99844.09
2023-02-11T05:23:24.793Z,99863.06
2023-02-11T05:26:28.043Z,99860.44
2023-02-11T05:29:31.426Z,99839.56
2023-02-11T05:32:35.057Z,99822.84
2023-02-11T05:35:39.523Z,99807.28
2023-02-11T05:38:43.350Z,99814.84
2023-02-11T05:41:46.611Z,99829.31
2023-02-11T05:44:50.758Z,99820.97
2023-02-11T05:47:54.234Z,99820.78
2023-02-11T05:50:59.029Z,99805.34
2023-02-11T05:54:02.174Z,99792.56
2023-02-11T05:57:05.545Z,99809.59
2023-02-11T06:00:10.144Z,99803.84
2023-02-11T06:03:16.562Z,99790.97
2023-02-11T06:06:21.060Z,99824.34
2023-02-11T06:09:24.248Z,99829.56
2023-02-11T06:12:28.130Z,99833.38
2023-02-11T06:15:32.550Z,99834.50
2023-02-11T06:18:35.836Z,99823.19
2023-02-11T06:21:44.166Z,99814.34
2023-02-11T06:25:00.743Z,99795.28
2023-02-11T06:28:05.122Z,99787.41
2023-02-11T06:31:09.703Z,99800.06
2023-02-11T06:34:12.958Z,99807.66
2023-02-11T06:37:17.507Z,99802.00
2023-02-11T06:40:20.756Z,99808.97
2023-02-11T06:43:23.942Z,99807.06
2023-02-11T06:46:27.147Z,99815.59
2023-02-11T06:49:30.322Z,99813.34
2023-02-11T06:52:35.444Z,99805.63
2023-02-11T06:55:38.724Z,99806.84
2023-02-11T06:58:42.042Z,99791.75
2023-02-11T07:01:45.294Z,99816.44
2023-02-11T07:04:48.637Z,99810.78
2023-02-11T07:07:53.162Z,99830.13
2023-02-11T07:10:56.365Z,99824.69
2023-02-11T07:14:02.724Z,99840.41
2023-02-11T07:17:05.948Z,99824.09
2023-02-11T07:20:12.315Z,99842.22
2023-02-11T07:23:16.783Z,99848.06
2023-02-11T07:26:23.604Z,99842.16
2023-02-11T07:29:27.155Z,99840.75
2023-02-11T07:32:30.418Z,99827.66
2023-02-11T07:35:33.996Z,99829.56
2023-02-11T07:38:38.849Z,99839.34
2023-02-11T07:41:42.821Z,99820.28
2023-02-11T07:44:50.345Z,99814.69
2023-02-11T07:47:53.886Z,99822.16
2023-02-11T07:50:56.889Z,99833.38
2023-02-11T07:54:01.606Z,99835.56
2023-02-11T07:57:06.077Z,99845.66
2023-02-11T08:00:10.383Z,99840.78
2023-02-11T08:03:16.157Z,99829.75
2023-02-11T08:06:21.137Z,99828.31
2023-02-11T08:09:25.699Z,99839.78
2023-02-11T08:12:28.878Z,99845.03
2023-02-11T08:15:32.060Z,99841.09
2023-02-11T08:18:37.376Z,99846.94
2023-02-11T08:21:41.283Z,99842.31
2023-02-11T08:24:45.775Z,99836.00
2023-02-11T08:27:48.943Z,99833.97
2023-02-11T08:30:52.415Z,99829.66
2023-02-11T08:33:58.253Z,99824.69
2023-02-11T08:37:01.506Z,99829.06
2023-02-11T08:40:07.127Z,99834.25
2023-02-11T08:43:10.737Z,99830.91
2023-02-11T08:46:16.369Z,99826.88
2023-02-11T08:49:19.744Z,99815.00
2023-02-11T08:52:25.013Z,99824.25
2023-02-11T08:55:29.482Z,99822.53
2023-02-11T08:58:33.144Z,99830.38
2023-02-11T09:01:37.202Z,99832.31
2023-02-11T09:04:40.861Z,99835.78
2023-02-11T09:07:43.979Z,99832.06
2023-02-11T09:10:48.848Z,99827.53
2023-02-11T09:13:54.377Z,99831.09
2023-02-11T09:16:58.552Z,99820.00
2023-02-11T09:20:02.050Z,99820.06
2023-02-11T09:23:05.267Z,99805.59
2023-02-11T09:26:11.986Z,99800.75
2023-02-11T09:29:15.153Z,99803.31
2023-02-11T09:32:18.570Z,99805.97
2023-02-11T09:35:21.819Z,99814.44
2023-02-11T09:38:24.964Z,99813.53
2023-02-11T09:42:07.750Z,99827.34
2023-02-11T09:45:17.297Z,99829.47
2023-02-11T09:48:23.365Z,99823.66
2023-02-11T09:51:35.453Z,99817.53
2023-02-11T09:54:46.706Z,99816.78
2023-02-11T09:57:51.406Z,99821.25
2023-02-11T10:01:04.013Z,99816.94
2023-02-11T10:04:20.581Z,99809.19
2023-02-11T10:07:29.403Z,99818.50
2023-02-11T10:10:45.388Z,99814.47
2023-02-11T10:13:59.653Z,99826.44
2023-02-11T10:17:11.365Z,99835.97
2023-02-11T10:20:24.712Z,99830.19
2023-02-11T10:23:32.473Z,99827.69
2023-02-11T10:26:37.767Z,99833.66
2023-02-11T10:29:47.443Z,99832.97
2023-02-11T10:34:22.392Z,99832.34
2023-02-11T10:37:25.683Z,99829.00
2023-02-11T10:40:31.595Z,99817.81
2023-02-11T10:43:37.953Z,99823.03
2023-02-11T10:46:41.218Z,99823.81
2023-02-11T10:49:47.603Z,99804.97
2023-02-11T10:52:50.905Z,99810.91
2023-02-11T10:55:57.204Z,99817.72
2023-02-11T10:59:03.093Z,99804.00
2023-02-11T11:02:20.764Z,99815.19
2023-02-11T11:05:30.749Z,99808.38
2023-02-11T11:08:43.817Z,99808.38
2023-02-11T11:11:53.636Z,99808.41
2023-02-11T11:14:58.418Z,99803.28
2023-02-11T11:18:22.109Z,99817.84
2023-02-11T11:21:34.334Z,99811.91
2023-02-11T11:24:46.621Z,99804.13
2023-02-11T11:27:53.096Z,99800.75
2023-02-11T11:30:58.737Z,99808.47
2023-02-11T11:34:13.936Z,99808.47
2023-02-11T11:37:24.668Z,99784.47
2023-02-11T11:40:29.744Z,99802.50
2023-02-11T11:43:33.030Z,99801.66
2023-02-11T11:46:43.264Z,99798.19
2023-02-11T11:49:52.070Z,99799.94
2023-02-11T11:53:01.556Z,99799.06
2023-02-11T11:56:10.175Z,99797.31
2023-02-11T11:59:16.627Z,99794.72
2023-02-11T12:02:38.832Z,99792.94
2023-02-11T12:05:52.732Z,99798.97
2023-02-11T12:09:04.727Z,99800.78
2023-02-11T12:12:23.881Z,99797.34
2023-02-11T12:15:35.803Z,99753.59
2023-02-11T12:19:14.883Z,99793.06
2023-02-11T12:22:30.796Z,99799.03
2023-02-11T12:25:42.800Z,99794.78
2023-02-11T12:29:02.487Z,99788.75
2023-02-11T12:32:27.106Z,99790.50
2023-02-11T12:35:42.423Z,99793.06
2023-02-11T12:39:02.533Z,99787.94
2023-02-11T12:42:59.790Z,99787.00
2023-02-11T12:46:35.482Z,99789.63
2023-02-11T12:50:03.772Z,99778.50
2023-02-11T12:53:26.857Z,99775.03
2023-02-11T12:56:37.970Z,99769.03
2023-02-11T12:59:50.495Z,99758.75
2023-02-11T13:03:00.913Z,99750.19
2023-02-11T13:06:08.908Z,99771.59
2023-02-11T13:09:21.046Z,99765.63
2023-02-11T13:12:43.734Z,99745.91
2023-02-11T13:15:52.601Z,99755.31
2023-02-11T13:19:03.719Z,99754.47
2023-02-11T13:22:14.481Z,99759.59
2023-02-11T13:25:24.293Z,99748.50
2023-02-11T13:28:40.131Z,99731.31
2023-02-11T13:31:53.532Z,99747.63
2023-02-11T13:34:59.386Z,99749.34
2023-02-11T13:38:04.368Z,99744.19
2023-02-11T13:41:17.835Z,99749.34
2023-02-11T13:44:27.497Z,99752.78
2023-02-11T13:47:35.743Z,99754.47
2023-02-11T13:50:40.746Z,99751.06
2023-02-11T13:53:48.158Z,99762.19
2023-02-11T13:57:22.565Z,99768.16
2023-02-11T14:00:50.695Z,99769.00
2023-02-11T14:04:38.909Z,99777.63
2023-02-11T14:08:31.590Z,99753.53
2023-02-11T14:11:51.496Z,99778.44
2023-02-11T14:15:33.362Z,99771.56
2023-02-11T14:18:55.692Z,99769.84
2023-02-11T14:22:04.780Z,99779.25
2023-02-11T14:25:19.679Z,99772.38
2023-02-11T14:28:32.599Z,99768.06
2023-02-11T14:31:41.344Z,99695.19
2023-02-11T14:34:52.636Z,99769.81
2023-02-11T14:38:05.146Z,99768.94
2023-02-11T14:41:12.777Z,99769.81
2023-02-11T14:44:20.434Z,99755.28
2023-02-11T14:47:26.132Z,99755.28
2023-02-11T14:50:34.627Z,99759.56
2023-02-11T14:53:44.417Z,99761.25
2023-02-11T14:56:47.977Z,99762.91
2023-02-11T14:59:58.955Z,99762.94
2023-02-11T15:03:02.294Z,99734.66
2023-02-11T15:06:09.017Z,99690.94
2023-02-11T15:09:19.957Z,99745.78
2023-02-11T15:12:26.023Z,99732.09
2023-02-11T15:15:32.950Z,99771.47
2023-02-11T15:18:40.956Z,99782.66
2023-02-11T15:21:47.163Z,99783.50
2023-02-11T15:25:03.733Z,99781.78
2023-02-11T15:28:16.492Z,99780.94
2023-02-11T15:31:23.164Z,99773.22
2023-02-11T15:34:26.849Z,99774.91
2023-02-11T15:37:37.553Z,99780.03
2023-02-11T15:40:52.351Z,99792.88
2023-02-11T15:43:55.777Z,99792.88
2023-02-11T15:46:59.550Z,99799.72
2023-02-11T15:50:03.163Z,99795.44
2023-02-11T15:53:22.864Z,99795.41
2023-02-11T15:56:32.812Z,99791.13
2023-02-11T15:59:39.423Z,99741.25
2023-02-11T16:02:46.383Z,99797.13
2023-02-11T16:05:49.641Z,99781.56
2023-02-11T16:09:01.144Z,99796.25
2023-02-11T16:12:26.957Z,99809.88
2023-02-11T16:15:46.855Z,99797.88
2023-02-11T16:19:04.210Z,99809.88
2023-02-11T16:22:11.923Z,99804.78
2023-02-11T16:25:20.387Z,99812.44
2023-02-11T16:28:25.214Z,99818.38
2023-02-11T16:34:24.474Z,99832.97
2023-02-11T16:37:28.978Z,99832.00
2023-02-11T16:40:32.056Z,99831.19
2023-02-11T16:43:35.281Z,99828.69
2023-02-11T16:46:39.183Z,99839.69
2023-02-11T16:49:44.124Z,99840.59
2023-02-11T16:52:47.664Z,99839.53
2023-02-11T16:55:51.547Z,99837.84
2023-02-11T16:58:54.731Z,99837.88
2023-02-11T17:01:58.640Z,99846.56
2023-02-11T17:05:06.263Z,99847.31
2023-02-11T17:08:10.398Z,99812.69
2023-02-11T17:11:16.631Z,99847.13
2023-02-11T17:14:20.065Z,99844.56
2023-02-11T17:17:24.089Z,99846.44
2023-02-11T17:20:28.786Z,99849.72
2023-02-11T17:23:31.937Z,99860.88
2023-02-11T17:26:36.838Z,99862.69
2023-02-11T17:29:40.111Z,99860.19
2023-02-11T17:32:43.331Z,99860.84
2023-02-11T17:35:50.861Z,99848.78
2023-02-11T17:38:56.397Z,99862.44
2023-02-11T17:41:59.579Z,99859.03
2023-02-11T17:45:02.737Z,99865.94
2023-02-11T17:48:06.098Z,99865.88
2023-02-11T17:51:22.959Z,99870.97
2023-02-11T17:54:26.183Z,99790.31
2023-02-11T17:57:29.342Z,99876.13
2023-02-11T18:00:33.281Z,99858.00
2023-02-11T18:03:36.401Z,99867.41
2023-02-11T18:06:40.986Z,99873.16
2023-02-11T18:09:44.249Z,99870.78
2023-02-11T18:12:47.511Z,99869.84
2023-02-11T18:15:51.002Z,99868.25
2023-02-11T18:18:54.852Z,99868.16
2023-02-11T18:22:01.154Z,99859.75
2023-02-11T18:25:06.808Z,99875.09
2023-02-11T18:28:10.062Z,99870.81
2023-02-11T18:31:14.019Z,99886.97
2023-02-11T18:34:17.610Z,99880.00
2023-02-11T18:37:22.117Z,99877.75
2023-02-11T18:40:25.331Z,99889.53
2023-02-11T18:43:31.507Z,99885.41
2023-02-11T18:46:35.427Z,99889.63
2023-02-11T18:49:38.864Z,99878.47
2023-02-11T18:52:43.730Z,99885.09
2023-02-11T18:55:47.549Z,99886.91
2023-02-11T18:58:52.001Z,99899.09
2023-02-11T19:01:55.240Z,99897.19
2023-02-11T19:04:58.422Z,99886.84
2023-02-11T19:08:03.316Z,99833.75
2023-02-11T19:11:06.726Z,99895.72
2023-02-11T19:14:10.407Z,99891.28
2023-02-11T19:17:14.013Z,99880.03
2023-02-11T19:20:17.641Z,99902.44
2023-02-11T19:23:22.183Z,99907.75
2023-02-11T19:26:25.897Z,99898.81
2023-02-11T19:29:31.987Z,99911.91
2023-02-11T19:32:35.503Z,99905.84
2023-02-11T19:35:38.632Z,99913.53
2023-02-11T19:38:44.352Z,99922.09
2023-02-11T19:41:47.861Z,99920.75
2023-02-11T19:44:51.131Z,99909.16
2023-02-11T19:47:56.841Z,99919.59
2023-02-11T19:51:00.020Z,99916.09
2023-02-11T19:54:04.878Z,99932.22
2023-02-11T19:57:08.355Z,99932.97
2023-02-11T20:00:12.668Z,99933.94
2023-02-11T20:03:16.013Z,99945.81
2023-02-11T20:06:23.246Z,99915.72
2023-02-11T20:09:28.972Z,99936.38
2023-02-11T20:12:32.207Z,99938.09
2023-02-11T20:15:35.567Z,99940.69
2023-02-11T20:18:39.427Z,99941.47
2023-02-11T20:21:44.921Z,99951.16
2023-02-11T20:24:50.921Z,99949.41
2023-02-11T20:27:58.490Z,99946.66
2023-02-11T20:31:05.549Z,99946.63
2023-02-11T20:34:08.841Z,99940.78
2023-02-11T20:37:12.231Z,99944.09
2023-02-11T20:40:17.665Z,99934.69
2023-02-11T20:43:21.228Z,99944.81
2023-02-11T20:46:26.827Z,99944.69
2023-02-11T20:49:30.419Z,99928.44
2023-02-11T20:52:34.298Z,99951.75
2023-02-11T20:55:40.030Z,99953.22
2023-02-11T20:58:43.644Z,99965.44
2023-02-11T21:01:48.918Z,99953.94
2023-02-11T21:04:52.273Z,99961.63
2023-02-11T21:07:56.088Z,99945.16
2023-02-11T21:11:02.006Z,99957.38
2023-02-11T21:14:05.924Z,99936.75
2023-02-11T21:17:09.123Z,99972.00
2023-02-11T21:20:12.694Z,99917.84
2023-02-11T21:23:15.962Z,99984.06
2023-02-11T21:26:20.453Z,99972.66
2023-02-11T21:29:23.710Z,99983.84
2023-02-11T21:32:26.815Z,99975.44
2023-02-11T21:35:32.699Z,99984.34
2023-02-11T21:38:36.912Z,99974.72
2023-02-11T21:41:41.639Z,99977.50
2023-02-11T21:44:45.150Z,99979.06
2023-02-11T21:47:48.347Z,99984.91
2023-02-11T21:50:51.448Z,99988.34
2023-02-11T21:53:55.716Z,99989.25
2023-02-11T21:57:02.942Z,99989.84
2023-02-11T22:00:08.569Z,99966.50
2023-02-11T22:03:13.563Z,99976.09
2023-02-11T22:06:21.217Z,99982.28
2023-02-11T22:09:24.499Z,99980.59
2023-02-11T22:12:29.443Z,99995.94
2023-02-11T22:15:32.650Z,99997.63
2023-02-11T22:18:36.153Z,99992.38
2023-02-11T22:21:39.461Z,99988.13
2023-02-11T22:24:42.790Z,99995.88
2023-02-11T22:27:47.260Z,99994.06
2023-02-11T22:34:21.849Z,100000.63
2023-02-11T22:37:25.153Z,99999.16
2023-02-11T22:40:28.476Z,100009.44
2023-02-11T22:43:31.705Z,100012.75
2023-02-11T22:46:35.448Z,100004.22
2023-02-11T22:49:41.304Z,100012.72
2023-02-11T22:52:44.476Z,100007.59
2023-02-11T22:55:47.580Z,100018.59
2023-02-11T22:58:51.151Z,100012.91
2023-02-11T23:01:54.368Z,100009.56
2023-02-11T23:04:59.347Z,100021.94
2023-02-11T23:08:02.536Z,100022.06
2023-02-11T23:11:08.086Z,100022.84
2023-02-11T23:14:12.134Z,100022.63
2023-02-11T23:17:15.380Z,100018.38
2023-02-11T23:20:20.226Z,100016.00
2023-02-11T23:23:23.417Z,100014.66
2023-02-11T23:26:27.351Z,100025.66
2023-02-11T23:29:30.778Z,100028.50
2023-02-11T23:32:34.091Z,100033.31
2023-02-11T23:35:38.974Z,100017.78
2023-02-11T23:38:45.008Z,100023.94
2023-02-11T23:41:48.133Z,100028.31
2023-02-11T23:44:51.299Z,100025.78
2023-02-11T23:47:54.900Z,100027.34
2023-02-11T23:50:59.304Z,100028.09
2023-02-11T23:54:03.164Z,100018.78
2023-02-11T23:57:06.784Z,100026.97
